Maria S. Merian — DBBT — position and weather

sailwx.info

Track history (hours):
 
Tides and Currents Weather Stations Pressure Air Temp Water Temp Dewpoint Dewpoint Depression Visibility Wind Speed Wind Dir Waves Ship Positions

Oceanographic research ship Maria S. Merian (Germany)

Last reported at 2019-Aug-24 08:00 UTC. Time now 2019-Aug-24 09:10 UTC.
Position N 73°30' W 009°06'.

Length 94.8 m; beam 19.2 m; draft 6.5 m.

Type: Other ship. MMSI: 211753000.

Wind from 190 at 16 knots

Barometer 1023.4 mb
Air temperature 5.9 ° C
Dewpoint 4.1 ° C
Water temperature 5.8 ° C

Date/timePositionNaut miles runAvg speedWind from/ knotsBaromVisibWave heightAir tempDewpointWater temp
2019-Aug-24 08:00N 73°30' W 009°06'0 0.0 190 / 161023.4 5.9 4.1 5.8
2019-Aug-24 07:00N 73°30' W 009°06'3 3.4 200 / 161023.7 5.8 4.1 5.7
2019-Aug-24 06:00N 73°30' W 009°18'8 7.9 210 / 141024.9 5.7 4.9 5.8
2019-Aug-24 05:00N 73°24' W 009°36'3 3.4 220 / 121024.9 5.1 4.9 5.8
2019-Aug-24 04:00N 73°24' W 009°48'8 7.9 220 / 141025.1 4.6 4.6 5.7
2019-Aug-24 03:00N 73°30' W 009°30'3 3.4 230 / 121025.5 4.0 4.0 5.9
2019-Aug-24 02:00N 73°30' W 009°18'8 7.9 230 / 161025.6 3.4 3.3 5.5
2019-Aug-24 01:00N 73°36' W 009°00'8 7.9 240 / 171025.4 3.3 3.0 5.5
2019-Aug-24 00:00N 73°42' W 008°42'5 5.1 240 / 161025.3 3.2 2.9 5.6
2019-Aug-23 23:00N 73°42' W 009°00'1212.1 220 / 141024.7 2.8 2.7 5.5
2019-Aug-23 22:00N 73°30' W 009°06'0 0.0 230 / 141025.1 3.1 2.6 5.7
2019-Aug-23 21:00N 73°30' W 009°06'2 1.7 230 / 121025.1 2.3 2.0 5.6
2019-Aug-23 20:00N 73°30' W 009°00'0 0.0 230 / 121024.4 2.2 1.7 5.8
2019-Aug-23 19:00N 73°30' W 009°00'0 0.0 220 / 121024.2 2.3 1.8 5.8
2019-Aug-23 18:00N 73°30' W 009°00'0 0.0 220 / 121024.8 2.2 1.6 5.9
2019-Aug-23 17:00N 73°30' W 009°00'0 0.0 230 / 101024.6 3.0 2.4 5.8
2019-Aug-23 16:00N 73°30' W 009°00'0 0.0 220 / 81024.6 2.4 1.7 5.9
2019-Aug-23 15:00N 73°30' W 009°00'0 0.0 240 / 81023.9 2.2 1.6 5.8
2019-Aug-23 14:00N 73°30' W 009°00'0 0.0 260 / 61023.5 2.8 1.8 5.9
2019-Aug-23 13:00N 73°30' W 009°00'6 6.2 230 / 81023.5 2.4 1.1 5.6
2019-Aug-23 12:00N 73°36' W 009°06'2 1.7 250 / 101022.9 2.9 1.6 5.6
2019-Aug-23 11:00N 73°36' W 009°12'8 7.9 220 / 61022.8 3.2 1.1 5.7
2019-Aug-23 10:00N 73°30' W 009°30'5 5.1 250 / 81022.5 2.4 0.6 5.7
2019-Aug-23 09:00N 73°30' W 009°48'2 1.7 210 / 81022.1 2.5 1.4 5.9
2019-Aug-23 08:00N 73°30' W 009°54'8 7.9 230 / 61021.6 2.2 1.1 5.5
2019-Aug-23 07:00N 73°36' W 009°36'5 5.1 260 / 61021.5 2.3 1.2 5.5
2019-Aug-23 06:00N 73°36' W 009°18'7 6.9 250 / 61021.9 2.3 1.6 5.7
2019-Aug-23 05:00N 73°42' W 009°06'3 3.4 250 / 81021.2 2.2 1.5 5.7
2019-Aug-23 04:00N 73°42' W 008°54'3 3.4 240 / 81020.9 2.9 1.7 5.4
2019-Aug-23 03:00N 73°42' W 009°06'0 0.0 240 / 101020.9 3.0 2.1 5.9
2019-Aug-23 02:00N 73°42' W 009°06'1212.0 260 / 101020.0 3.0 2.7 5.6
2019-Aug-23 01:00N 73°30' W 009°06'6 6.0 290 / 101020.0 4.0 3.7 6.0
2019-Aug-23 00:00N 73°36' W 009°06'0 0.0 300 / 101019.8 3.7 3.6 5.7
2019-Aug-22 23:00N 73°36' W 009°06'0 0.0 200 / 81019.5 4.9 3.5 5.9
2019-Aug-22 22:00N 73°36' W 009°06'0 0.0 140 / 121019.5 4.6 3.9 5.7
2019-Aug-22 21:00N 73°36' W 009°06'2 1.7 1019.5 5.1 4.5 5.8
2019-Aug-22 20:00N 73°36' W 009°00'0 0.0 1019.4 4.1 3.2 5.8
2019-Aug-22 19:00N 73°36' W 009°00'0 0.0 1019.2 5.5 2.7 5.6
2019-Aug-22 18:00N 73°36' W 009°00'0 0.0 220 / 61019.3 4.0 3.0 5.7
2019-Aug-22 17:00N 73°36' W 009°00'0 0.0 200 / 61019.2 3.8 2.6 5.5
2019-Aug-22 16:00N 73°36' W 009°00'6 6.2 220 / 81019.2 3.5 2.0 5.6
2019-Aug-22 15:00N 73°30' W 009°06'0 0.0 210 / 61019.0 3.4 2.4 5.8
2019-Aug-22 14:00N 73°30' W 009°06'0 0.0 210 / 81019.1 3.2 2.2 6.0
2019-Aug-22 13:00N 73°30' W 009°06'0 0.0 200 / 81019.0 3.2 2.3 6.0
2019-Aug-22 12:00N 73°30' W 009°06'0 0.0 200 / 81018.8 3.3 1.8 5.9
2019-Aug-22 11:00N 73°30' W 009°06'0 0.0 200 / 81018.8 3.4 1.7 5.8
2019-Aug-22 10:00N 73°30' W 009°06'0 0.0 200 / 81018.8 3.0 1.9 5.9
2019-Aug-22 09:00N 73°30' W 009°06'0 0.0 210 / 61018.7 2.8 1.8 6.0
2019-Aug-22 08:00N 73°30' W 009°06'0 0.0 190 / 81018.4 3.1 1.8 5.9
2019-Aug-22 07:00N 73°30' W 009°06'0 0.0 210 / 81018.1 3.4 2.8 5.8
2019-Aug-22 06:00N 73°30' W 009°06'3 3.4 200 / 41019.1 3.1 2.4 5.9
2019-Aug-22 05:00N 73°30' W 009°18'0 0.0 200 / 21019.0 3.2 2.4 5.9
2019-Aug-22 04:00N 73°30' W 009°18'0 0.0 210 / 41018.6 3.3 1.3 5.9
2019-Aug-22 03:00N 73°30' W 009°18'6 6.0 200 / 81019.0 3.9 1.2 5.9
2019-Aug-22 02:00N 73°24' W 009°18'0 0.0 230 / 101018.5 3.9 2.5 5.9
2019-Aug-22 01:00N 73°24' W 009°18'0 0.0 230 / 61018.5 3.7 2.9 6.0
2019-Aug-22 00:00N 73°24' W 009°18'2 1.7 200 / 81018.4 3.5 2.1 6.0
2019-Aug-21 23:00N 73°24' W 009°24'0 0.0 190 / 61018.4 3.9 2.0 6.0
2019-Aug-21 22:00N 73°24' W 009°24'0 0.0 180 / 81018.0 4.1 0.2 6.1
2019-Aug-21 21:00N 73°24' W 009°24'0 0.0 200 / 81017.8 4.2 0.1 5.9
2019-Aug-21 20:00N 73°24' W 009°24'0 0.0 240 / 61017.9 4.6 0.4 5.9
2019-Aug-21 19:00N 73°24' W 009°24'7 6.9 1018.0 5.2 1.7 6.0
2019-Aug-21 18:00N 73°24' W 009°00'9 9.1 1018.0 4.1 0.5 6.0
2019-Aug-21 17:00N 73°30' W 008°36'8 7.9 290 / 41017.9 3.9 0.2 5.7
2019-Aug-21 16:00N 73°36' W 008°18'7 6.8 310 / 41017.9 3.2 1.7 5.7
2019-Aug-21 15:00N 73°36' W 007°54'9 9.0 300 / 101017.8 2.7 0.9 5.7
2019-Aug-21 14:00N 73°42' W 007°30'9 9.0 300 / 81017.7 2.2 1.3 5.9
2019-Aug-21 13:00N 73°48' W 007°06'9 9.0 310 / 81017.4 1.9 0.8 5.9
2019-Aug-21 12:00N 73°54' W 006°42'7 6.7 310 / 81017.4 1.8 0.7 5.9
2019-Aug-21 11:00N 73°54' W 006°18'9 8.9 290 / 61017.1 1.7 0.7 6.4
2019-Aug-21 10:00N 74°00' W 005°54'9 8.9 310 / 41016.8 1.9 1.1 6.0
2019-Aug-21 09:00N 74°06' W 005°30'9 8.9 310 / 61016.4 1.6 0.8 6.2
2019-Aug-21 08:00N 74°12' W 005°06'7 6.5 310 / 41016.1 2.2 1.3 6.0
2019-Aug-21 07:00N 74°12' W 004°42'9 8.9 330 / 41015.8 2.5 1.4 6.2
2019-Aug-21 06:00N 74°18' W 004°18'9 8.8 310 / 81016.3 2.8 1.4 6.3
2019-Aug-21 05:00N 74°24' W 003°54'9 8.8 310 / 81015.3 2.9 1.4 6.1
2019-Aug-21 04:00N 74°30' W 003°30'5 4.8 310 / 101015.1 3.0 1.4 5.9
2019-Aug-21 03:00N 74°30' W 003°12'0 0.0 300 / 101015.0 4.1 1.6 5.6
2019-Aug-21 02:00N 74°30' W 003°12'0 0.0 300 / 101014.7 3.6 1.8 6.0
2019-Aug-21 01:00N 74°30' W 003°12'6 6.2 300 / 101014.5 3.6 1.7 5.9
2019-Aug-21 00:00N 74°36' W 003°06'1413.6 300 / 101014.2 3.0 2.0 6.0
2019-Aug-20 23:00N 74°48' W 002°42'1312.9 310 / 101014.1 2.8 1.8 6.1
2019-Aug-20 22:00N 75°00' W 002°24'1313.5 320 / 101014.6 2.6 1.9 6.6
2019-Aug-20 21:00N 75°12' W 002°00'8 7.5 340 / 141013.6 2.4 1.6 6.4
2019-Aug-20 20:00N 75°18' W 001°42'7 6.7 320 / 121013.3 2.6 1.6 6.8
2019-Aug-20 19:00N 75°24' W 001°30'1312.8 320 / 121013.1 2.4 1.5 6.4
2019-Aug-20 18:00N 75°36' W 001°12'1313.4 330 / 141012.7 2.7 1.0 6.0
2019-Aug-20 17:00N 75°48' W 000°48'8 8.4 330 / 161012.0 3.0 1.5 7.2
2019-Aug-20 16:00N 75°54' W 000°24'1313.3 340 / 171011.6 3.1 1.3 7.0
2019-Aug-20 15:00N 76°06' E 000°00'1313.3 340 / 161011.4 2.9 2.0 7.3
2019-Aug-20 14:00N 76°18' E 000°24'1313.3 330 / 161010.9 2.3 1.5 6.6
2019-Aug-20 13:00N 76°30' E 000°48'1313.2 330 / 161011.2 2.2 1.2 5.8
2019-Aug-20 12:00N 76°42' E 001°12'1413.8 340 / 171011.1 2.5 1.6 6.5
2019-Aug-20 11:00N 76°54' E 001°42'1313.2 340 / 171010.9 2.8 1.5 5.9
2019-Aug-20 10:00N 77°06' E 002°06'1413.7 350 / 171010.6 3.4 1.9 5.6
2019-Aug-20 09:00N 77°18' E 002°36'1313.1 340 / 171010.6 3.4 2.5 6.1
2019-Aug-20 08:00N 77°30' E 003°00'1413.6 340 / 171010.0 3.9 3.0 5.7
2019-Aug-20 07:00N 77°42' E 003°30'1313.0 350 / 141010.5 4.4 2.7 6.4
2019-Aug-20 06:00N 77°54' E 003°54'1413.5 360 / 141010.7 4.2 2.1 5.9
2019-Aug-20 05:00N 78°06' E 004°24'9 8.6 350 / 161010.8 4.4 1.7 5.8
2019-Aug-20 04:00N 78°12' E 004°54'1313.5 360 / 141010.8 4.4 2.2 6.2
2019-Aug-20 03:00N 78°24' E 005°24'1313.4 350 / 161010.9 4.3 1.5 6.4
2019-Aug-20 02:00N 78°36' E 005°54'1313.4 360 / 141012.0 4.5 2.0 6.3
2019-Aug-20 01:00N 78°48' E 006°24'1313.3 360 / 141012.3 4.4 1.6 6.6
2019-Aug-20 00:00N 79°00' E 006°54'0 0.0 010 / 121011.7 4.3 0.5 6.8
2019-Aug-19 23:00N 79°00' E 006°54'0 0.0 010 / 121011.4 4.4 1.2 6.9
2019-Aug-19 22:00N 79°00' E 006°54'0 0.0 010 / 101011.9 4.4 1.3 6.9
2019-Aug-19 21:00N 79°00' E 006°54'0 0.0 350 / 81012.0 4.2 1.3 6.8
2019-Aug-19 20:00N 79°00' E 006°54'0 0.0 350 / 81011.9 4.0 0.9 7.0
2019-Aug-19 19:00N 79°00' E 006°54'0 0.0 350 / 61011.8 4.3 0.6 7.0
2019-Aug-19 18:00N 79°00' E 006°54'0 0.0 320 / 41011.5 4.5 0.7 7.0
2019-Aug-19 17:00N 79°00' E 006°54'0 0.0 320 / 41012.0 4.2 0.4 7.1
2019-Aug-19 16:00N 79°00' E 006°54'0 0.0 1012.0 4.5 0.7 7.1
2019-Aug-19 15:00N 79°00' E 006°54'0 0.0 1012.0 4.1 0.2 7.0
2019-Aug-19 14:00N 79°00' E 006°54'0 0.0 1011.8 4.9 0.1 7.0
2019-Aug-19 13:00N 79°00' E 006°54'0 0.0 1012.0 4.0 0.1 7.0
2019-Aug-19 12:00N 79°00' E 006°54'0 0.0 1011.9 5.0 0.3 7.1
2019-Aug-19 11:00N 79°00' E 006°54'0 0.0 060 / 21011.8 3.8 0.2 7.1
2019-Aug-19 10:00N 79°00' E 006°54'0 0.0 1011.7 3.7 0.2 7.0
2019-Aug-19 09:00N 79°00' E 006°54'0 0.0 1011.8 3.5 0.2 7.0
2019-Aug-19 08:00N 79°00' E 006°54'0 0.0 250 / 41011.9 5.0 1.2 7.0
2019-Aug-19 07:00N 79°00' E 006°54'0 0.0 280 / 41011.7 3.2 0.3 7.0
2019-Aug-19 06:00N 79°00' E 006°54'1 1.1 270 / 21012.5 3.0-0.1 6.9
2019-Aug-19 05:00N 79°00' E 007°00'7 6.9 1012.1 2.9 0.5 6.7
2019-Aug-19 04:00N 78°54' E 007°18'2 2.3 330 / 41012.1 2.9 1.3 6.8
2019-Aug-19 03:00N 78°54' E 007°30'7 6.9 1012.0 3.4 1.8 6.6
2019-Aug-19 02:00N 78°48' E 007°48'129.9 350 / 41012.1 3.3 1.4 6.8
2019-Aug-19 01:57N 78°49' E 007°46'2 5.3
2019-Aug-19 01:29N 78°48' E 007°54'612.1
2019-Aug-19 01:00N 78°42' E 008°06'390.8 330 / 41012.0 3.4 1.2 6.6
2019-Aug-19 00:57N 78°45' E 008°04'5 5.3
2019-Aug-19 00:04N 78°42' E 008°20'112.6
2019-Aug-19 00:00N 78°42' E 008°24'7 7.0 340 / 41011.7 3.4 1.4 6.7
2019-Aug-18 23:00N 78°36' E 008°42'7 7.0 1010.9 3.0 1.3 5.9
2019-Aug-18 22:00N 78°30' E 009°00'4 3.6 330 / 41010.8 3.0 1.5 5.9
2019-Aug-18 21:00N 78°30' E 009°18'2 4.6 350 / 21010.6 3.1-0.4 6.1
2019-Aug-18 20:38N 78°28' E 009°20'1 5.3
2019-Aug-18 20:29N 78°28' E 009°23'3 5.2
2019-Aug-18 20:00N 78°26' E 009°31'2180.9
2019-Aug-18 20:00N 78°24' E 009°36'1 1.7 330 / 41010.1 2.9 0.3 6.1
2019-Aug-18 19:30N 78°24' E 009°40'712.9
2019-Aug-18 19:00N 78°18' E 009°54'4816.6 1010.0 3.2-0.3 6.4
2019-Aug-18 18:59N 78°22' E 009°49'3 5.3
2019-Aug-18 18:30N 78°20' E 009°57'3 5.3
2019-Aug-18 18:00N 78°18' E 010°06'1132.7
2019-Aug-18 18:00N 78°18' E 010°12'2 4.0 1009.8 2.7 0.3 6.6
2019-Aug-18 17:30N 78°16' E 010°15'3 5.3
2019-Aug-18 17:00N 78°14' E 010°23'3207.7
2019-Aug-18 17:00N 78°12' E 010°30'0 1.0 1010.0 3.6 0.4 6.5
2019-Aug-18 16:30N 78°12' E 010°32'3 5.3
2019-Aug-18 16:00N 78°10' E 010°41'2162.1
2019-Aug-18 16:00N 78°12' E 010°48'4 7.6 350 / 41009.6 3.4 0.3 6.3
2019-Aug-18 15:30N 78°08' E 010°49'1 1.9
2019-Aug-18 15:00N 78°08' E 010°52'2397.9
2019-Aug-18 15:00N 78°06' E 010°54'2 3.2 360 / 61009.6 3.7 0.5 6.3
2019-Aug-18 14:30N 78°08' E 010°52'0 0.0
2019-Aug-18 14:00N 78°08' E 010°52'2397.9
2019-Aug-18 14:00N 78°06' E 010°54'2 3.1 300 / 41009.6 3.9-0.4 6.5
2019-Aug-18 13:30N 78°08' E 010°52'0 0.0
2019-Aug-18 13:00N 78°08' E 010°52'2232.1
2019-Aug-18 13:00N 78°06' E 010°54'2 3.2 350 / 41009.5 4.0 0.7 6.7
2019-Aug-18 12:30N 78°08' E 010°52'0 0.0
2019-Aug-18 12:00N 78°08' E 010°52'2179.2
2019-Aug-18 12:00N 78°06' E 011°00'3 6.1 330 / 41009.6 3.2 0.5 6.4
2019-Aug-18 11:29N 78°07' E 011°14'612.2
2019-Aug-18 11:00N 78°07' E 011°43'4315.9
2019-Aug-18 11:00N 78°06' E 012°00'3 5.9 340 / 61009.2 3.3 1.4 6.1
2019-Aug-18 10:29N 78°07' E 012°14'612.4
2019-Aug-18 10:00N 78°07' E 012°43'4405.1
2019-Aug-18 10:00N 78°06' E 013°00'3 5.8 280 / 61009.0 4.0 0.5 6.2
2019-Aug-18 09:30N 78°07' E 013°13'611.9
2019-Aug-18 09:00N 78°09' E 013°41'51430.4
2019-Aug-18 09:00N 78°12' E 014°00'2 4.5 240 / 81008.7 4.0 1.1 7.3
2019-Aug-18 08:29N 78°11' E 014°09'611.9
2019-Aug-18 08:00N 78°13' E 014°36'41937.5
2019-Aug-18 08:00N 78°12' E 014°54'8 8.2 230 / 121008.4 3.9 1.3 7.4
2019-Aug-18 07:00N 78°16' E 015°30'4418.5
2019-Aug-18 07:00N 78°12' E 015°36'2 4.0 250 / 61008.2 6.3 0.9 9.1
2019-Aug-18 06:28N 78°14' E 015°35'2 4.5
2019-Aug-18 06:00N 78°12' E 015°36'268.2 1008.0 5.5 0.8 9.1
2019-Aug-18 05:58N 78°14' E 015°35'0 0.0
2019-Aug-18 05:28N 78°14' E 015°35'2 4.5
2019-Aug-18 05:00N 78°12' E 015°36'267.6 1008.3 5.0 1.0 9.1
2019-Aug-18 04:58N 78°14' E 015°35'0 0.0
2019-Aug-18 04:28N 78°14' E 015°35'2 4.5
2019-Aug-18 04:00N 78°12' E 015°36'267.6 350 / 61008.1 4.1 0.4 8.9
2019-Aug-18 03:58N 78°14' E 015°35'0 0.0
2019-Aug-18 03:28N 78°14' E 015°35'2 4.5
2019-Aug-18 03:00N 78°12' E 015°36'267.0 300 / 41008.0 4.0 0.5 9.0
2019-Aug-18 02:58N 78°14' E 015°35'0 0.0
2019-Aug-18 02:28N 78°14' E 015°35'2 4.5
2019-Aug-18 02:00N 78°12' E 015°36'267.6 250 / 61007.4 3.9 0.7 9.0
2019-Aug-18 01:58N 78°14' E 015°35'0 0.0
2019-Aug-18 01:28N 78°14' E 015°35'2 4.5
2019-Aug-18 01:00N 78°12' E 015°36'268.2 260 / 61007.4 3.8 0.8 8.9
2019-Aug-18 00:58N 78°14' E 015°35'0 0.0
2019-Aug-18 00:28N 78°14' E 015°35'2 4.5
2019-Aug-18 00:00N 78°12' E 015°36'267.6 240 / 61007.2 4.0 0.7 8.9
2019-Aug-17 23:58N 78°14' E 015°35'0 0.0
2019-Aug-17 23:28N 78°14' E 015°35'2 4.5
2019-Aug-17 23:00N 78°12' E 015°36'267.6 220 / 61007.0 4.0 0.4 8.9
2019-Aug-17 22:58N 78°14' E 015°35'0 0.0
2019-Aug-17 22:28N 78°14' E 015°35'2 4.5
2019-Aug-17 22:00N 78°12' E 015°36'267.6 170 / 41006.6 4.7 1.1 9.0
2019-Aug-17 21:58N 78°14' E 015°35'0 0.0
2019-Aug-17 21:28N 78°14' E 015°35'2 4.5
2019-Aug-17 21:00N 78°12' E 015°36'267.6 220 / 41006.7 4.3 1.1 9.1
2019-Aug-17 20:58N 78°14' E 015°35'0 0.0
2019-Aug-17 20:28N 78°14' E 015°35'2 4.5
2019-Aug-17 20:00N 78°12' E 015°36'267.6 260 / 81006.2 4.3 0.7 9.0
2019-Aug-17 19:58N 78°14' E 015°35'0 0.0
2019-Aug-17 19:28N 78°14' E 015°35'2 4.5
2019-Aug-17 19:00N 78°12' E 015°36'267.6 230 / 121005.6 4.2 0.9 9.0
2019-Aug-17 18:58N 78°14' E 015°35'0 0.0
2019-Aug-17 18:28N 78°14' E 015°35'2 4.5
2019-Aug-17 18:00N 78°12' E 015°36'2 4.0 250 / 141005.5 4.2 1.3 9.0
2019-Aug-17 17:28N 78°14' E 015°35'2 4.5
2019-Aug-17 17:00N 78°12' E 015°36'226.2 260 / 101005.5 4.3 1.0 8.9
2019-Aug-17 16:55N 78°14' E 015°35'0 0.0
2019-Aug-17 16:28N 78°14' E 015°35'2 4.5
2019-Aug-17 16:00N 78°12' E 015°36'268.2 250 / 141004.8 4.2 1.4 8.9
2019-Aug-17 15:58N 78°14' E 015°35'0 0.0
2019-Aug-17 15:28N 78°14' E 015°35'2 4.5
2019-Aug-17 15:00N 78°12' E 015°36'267.0 250 / 171004.5 4.6 0.5 8.8
2019-Aug-17 14:58N 78°14' E 015°35'0 0.0
2019-Aug-17 14:28N 78°14' E 015°35'2 4.5
2019-Aug-17 14:00N 78°12' E 015°36'268.2 240 / 191004.2 4.6 0.2 8.9
2019-Aug-17 13:58N 78°14' E 015°35'0 0.0
2019-Aug-17 13:28N 78°14' E 015°35'2 4.5
2019-Aug-17 13:00N 78°12' E 015°36'268.2 250 / 141004.4 4.5 0.4 8.9
2019-Aug-17 12:58N 78°14' E 015°35'0 0.0
2019-Aug-17 12:28N 78°14' E 015°35'2 4.5
2019-Aug-17 12:00N 78°12' E 015°36'267.6 250 / 101004.2 4.6 0.6 8.8
2019-Aug-17 11:58N 78°14' E 015°35'0 0.0
2019-Aug-17 11:28N 78°14' E 015°35'2 4.5
2019-Aug-17 11:00N 78°12' E 015°36'267.6 250 / 141003.8 4.6-0.0 8.9
2019-Aug-17 10:58N 78°14' E 015°35'0 0.0
2019-Aug-17 10:28N 78°14' E 015°35'2 4.5
2019-Aug-17 10:00N 78°12' E 015°36'267.6 240 / 161003.1 4.5 0.4 8.8
2019-Aug-17 09:58N 78°14' E 015°35'0 0.0
2019-Aug-17 09:28N 78°14' E 015°35'2 4.5
2019-Aug-17 09:00N 78°12' E 015°36'267.6 250 / 101003.2 4.3-0.3 8.8
2019-Aug-17 08:58N 78°14' E 015°35'0 0.0
2019-Aug-17 08:28N 78°14' E 015°35'2 4.5
2019-Aug-17 08:00N 78°12' E 015°36'267.6 250 / 161003.0 4.2-0.2 8.9
2019-Aug-17 07:58N 78°14' E 015°35'0 0.0
2019-Aug-17 07:28N 78°14' E 015°35'2 4.5
2019-Aug-17 07:00N 78°12' E 015°36'267.6 240 / 141002.8 3.9-0.2 8.8
2019-Aug-17 06:58N 78°14' E 015°35'0 0.0
2019-Aug-17 06:28N 78°14' E 015°35'2 4.5
2019-Aug-17 06:00N 78°12' E 015°36'267.6 250 / 141002.7 3.9-0.2 8.7
2019-Aug-17 05:58N 78°14' E 015°35'0 0.0
2019-Aug-17 05:28N 78°14' E 015°35'2 4.5
2019-Aug-17 05:00N 78°12' E 015°36'267.6 250 / 121002.4 3.8-0.0 8.8
2019-Aug-17 04:58N 78°14' E 015°35'0 0.0
2019-Aug-17 04:28N 78°14' E 015°35'2 4.5
2019-Aug-17 04:00N 78°12' E 015°36'267.0 260 / 121002.3 3.6 0.1 8.8
2019-Aug-17 03:58N 78°14' E 015°35'0 0.0
2019-Aug-17 03:28N 78°14' E 015°35'2 4.5
2019-Aug-17 03:00N 78°12' E 015°36'268.2 250 / 141002.0 3.4-0.0 8.7
2019-Aug-17 02:58N 78°14' E 015°35'0 0.0
2019-Aug-17 02:28N 78°14' E 015°35'2 4.5
2019-Aug-17 02:00N 78°12' E 015°36'268.2 240 / 121001.7 3.5-0.0 8.8
2019-Aug-17 01:58N 78°14' E 015°35'0 0.0
2019-Aug-17 01:28N 78°14' E 015°35'2 4.5
2019-Aug-17 01:00N 78°12' E 015°36'267.6 240 / 141001.3 3.6 0.6 8.8
2019-Aug-17 00:58N 78°14' E 015°35'0 0.0
2019-Aug-17 00:28N 78°14' E 015°35'2 4.5
2019-Aug-17 00:00N 78°12' E 015°36'267.6 250 / 191001.0 3.8 0.6 8.8
2019-Aug-16 23:58N 78°14' E 015°35'0 0.0
2019-Aug-16 23:28N 78°14' E 015°35'2 4.5
2019-Aug-16 23:00N 78°12' E 015°36'268.0 240 / 101001.2 3.9 0.5 8.8
2019-Aug-16 22:58N 78°14' E 015°35'0 0.0
2019-Aug-16 22:28N 78°14' E 015°35'2 4.5
2019-Aug-16 22:00N 78°12' E 015°36'267.4 240 / 171001.0 4.0 0.6 8.9
2019-Aug-16 21:58N 78°14' E 015°35'0 0.0
2019-Aug-16 21:28N 78°14' E 015°35'2 4.5
2019-Aug-16 21:00N 78°12' E 015°36'268.0 250 / 171000.7 3.9 0.4 9.0
2019-Aug-16 20:58N 78°14' E 015°35'0 0.0
2019-Aug-16 20:28N 78°14' E 015°35'2 4.5
2019-Aug-16 20:00N 78°12' E 015°36'268.2 260 / 141000.5 3.9 0.1 9.0
2019-Aug-16 19:58N 78°14' E 015°35'0 0.0
2019-Aug-16 19:28N 78°14' E 015°35'2 4.5
2019-Aug-16 19:00N 78°12' E 015°36'267.6 250 / 171000.3 3.6 0.6 9.2
2019-Aug-16 18:58N 78°14' E 015°35'0 0.0
2019-Aug-16 18:28N 78°14' E 015°35'2 4.5
2019-Aug-16 18:00N 78°12' E 015°36'267.6 260 / 141000.0 4.0-0.4 8.9
2019-Aug-16 17:58N 78°14' E 015°35'0 0.0
2019-Aug-16 17:28N 78°14' E 015°35'2 4.5
2019-Aug-16 17:00N 78°12' E 015°36'2243.5 270 / 8999.8 4.1-0.1 9.8
2019-Aug-16 16:59N 78°14' E 015°36'0 0.0
2019-Aug-16 16:29N 78°14' E 015°36'2 3.6
2019-Aug-16 16:00N 78°12' E 015°36'2243.5 270 / 121000.4 4.5 0.6 9.9
2019-Aug-16 15:59N 78°14' E 015°36'0 0.0
2019-Aug-16 15:29N 78°14' E 015°36'2 3.6
2019-Aug-16 15:00N 78°12' E 015°36'2243.5 240 / 14999.8 4.6-0.2 9.6
2019-Aug-16 14:59N 78°14' E 015°36'0 0.0
2019-Aug-16 14:29N 78°14' E 015°36'2 3.6
2019-Aug-16 14:00N 78°12' E 015°36'2243.5 220 / 81000.5 4.6-1.1 9.6
2019-Aug-16 13:59N 78°14' E 015°36'0 0.0
2019-Aug-16 13:29N 78°14' E 015°36'2 3.6
2019-Aug-16 13:00N 78°12' E 015°36'2263.8 230 / 101000.7 4.4-1.3 9.7
2019-Aug-16 12:59N 78°14' E 015°36'0 0.0
2019-Aug-16 12:29N 78°14' E 015°36'2 3.6
2019-Aug-16 12:00N 78°12' E 015°36'2234.5 240 / 61000.8 4.4-1.0 9.7
2019-Aug-16 11:59N 78°14' E 015°36'0 0.0
2019-Aug-16 11:29N 78°14' E 015°36'2 3.6
2019-Aug-16 11:00N 78°12' E 015°36'2253.2 240 / 61000.5 3.9-0.1 9.8
2019-Aug-16 10:59N 78°14' E 015°36'0 0.0
2019-Aug-16 10:29N 78°14' E 015°36'2 3.6
2019-Aug-16 10:00N 78°12' E 015°36'2253.2 1000.2 5.2 0.6 9.9
2019-Aug-16 09:59N 78°14' E 015°36'0 0.0
2019-Aug-16 09:29N 78°14' E 015°36'2 3.6
2019-Aug-16 09:00N 78°12' E 015°36'2253.2 070 / 21000.2 3.9 1.5 9.7
2019-Aug-16 08:59N 78°14' E 015°36'0 0.0
2019-Aug-16 08:29N 78°14' E 015°36'2 3.6
2019-Aug-16 08:00N 78°12' E 015°36'2243.5 100 / 41000.3 2.3 0.7 9.6
2019-Aug-16 07:59N 78°14' E 015°36'0 0.0
2019-Aug-16 07:29N 78°14' E 015°36'2 3.6
2019-Aug-16 07:00N 78°12' E 015°36'2253.2 100 / 41000.6 2.0 1.0 9.6
2019-Aug-16 06:59N 78°14' E 015°36'0 0.0
2019-Aug-16 06:29N 78°14' E 015°36'2 3.6
2019-Aug-16 06:00N 78°12' E 015°36'2253.2 1000.5 1.9 0.5 9.6
2019-Aug-16 05:59N 78°14' E 015°36'0 0.0
2019-Aug-16 05:29N 78°14' E 015°36'2 3.6
2019-Aug-16 05:00N 78°12' E 015°36'2253.2 270 / 21000.3 1.2 0.4 9.6
2019-Aug-16 04:59N 78°14' E 015°36'0 0.0
2019-Aug-16 04:29N 78°14' E 015°36'2 3.6
2019-Aug-16 04:00N 78°12' E 015°36'2234.5 1000.1 1.8 1.0 9.5
2019-Aug-16 03:59N 78°14' E 015°36'0 0.0
2019-Aug-16 03:29N 78°14' E 015°36'2 3.6
2019-Aug-16 03:00N 78°12' E 015°36'2243.5 1000.0 1.6 0.7 9.5
2019-Aug-16 02:59N 78°14' E 015°36'0 0.0
2019-Aug-16 02:29N 78°14' E 015°36'2 3.6
2019-Aug-16 02:00N 78°12' E 015°36'2243.5 999.9 1.3 0.5 9.5
2019-Aug-16 01:59N 78°14' E 015°36'0 0.0
2019-Aug-16 01:29N 78°14' E 015°36'2 3.6
2019-Aug-16 01:00N 78°12' E 015°36'2253.2 210 / 2999.8 1.5 0.1 9.6
2019-Aug-16 00:59N 78°14' E 015°36'0 0.0
2019-Aug-16 00:29N 78°14' E 015°36'2 3.6
2019-Aug-16 00:00N 78°12' E 015°36'2253.2 100 / 4999.5 1.3 0.6 9.6
2019-Aug-15 23:59N 78°14' E 015°36'0 0.0
2019-Aug-15 23:29N 78°14' E 015°36'2 3.6
2019-Aug-15 23:00N 78°12' E 015°36'2243.5 130 / 2999.5 0.6-0.0 9.6
2019-Aug-15 22:59N 78°14' E 015°36'0 0.0
2019-Aug-15 22:29N 78°14' E 015°36'2 3.6
2019-Aug-15 22:00N 78°12' E 015°36'2243.5 340 / 4999.2 1.4-0.0 9.6
2019-Aug-15 21:59N 78°14' E 015°36'0 0.0
2019-Aug-15 21:29N 78°14' E 015°36'2 3.6
2019-Aug-15 21:00N 78°12' E 015°36'2253.2 998.6 2.7-0.1 9.6
2019-Aug-15 20:59N 78°14' E 015°36'0 0.0
2019-Aug-15 20:29N 78°14' E 015°36'2 3.6
2019-Aug-15 20:00N 78°12' E 015°36'2243.5 190 / 6998.9 3.1-0.5 9.7
2019-Aug-15 19:59N 78°14' E 015°36'0 0.0
2019-Aug-15 19:29N 78°14' E 015°36'2 3.6
2019-Aug-15 19:00N 78°12' E 015°36'2253.2 998.8 3.0 0.1 9.5
2019-Aug-15 18:59N 78°14' E 015°36'0 0.0
2019-Aug-15 18:29N 78°14' E 015°36'2 3.6
2019-Aug-15 18:00N 78°12' E 015°36'2243.5 998.9 2.7-0.4 9.5
2019-Aug-15 17:59N 78°14' E 015°36'0 0.0
2019-Aug-15 17:29N 78°14' E 015°36'2 3.6
2019-Aug-15 17:00N 78°12' E 015°36'2243.5 210 / 6998.7 3.4-0.7 9.4
2019-Aug-15 16:59N 78°14' E 015°36'0 0.0
2019-Aug-15 16:29N 78°14' E 015°36'2 3.6
2019-Aug-15 16:00N 78°12' E 015°36'2243.5 240 / 12998.6 3.7-0.0 9.4
2019-Aug-15 15:59N 78°14' E 015°36'0 0.0
2019-Aug-15 15:29N 78°14' E 015°36'2 3.6
2019-Aug-15 15:00N 78°12' E 015°36'2253.2 250 / 8998.4 4.1 0.5 9.4
2019-Aug-15 14:59N 78°14' E 015°36'0 0.0
2019-Aug-15 14:29N 78°14' E 015°36'2 3.6
2019-Aug-15 14:00N 78°12' E 015°36'2243.5 240 / 6998.2 3.9 0.8 9.3
2019-Aug-15 13:59N 78°14' E 015°36'0 0.0
2019-Aug-15 13:29N 78°14' E 015°36'2 3.6
2019-Aug-15 13:00N 78°12' E 015°36'2244.3 080 / 4998.3 4.0 1.0 9.3
2019-Aug-15 12:59N 78°14' E 015°36'0 0.0
2019-Aug-15 12:29N 78°14' E 015°36'2 3.6
2019-Aug-15 12:00N 78°12' E 015°36'2243.5 998.5 3.9 1.1 9.3
2019-Aug-15 11:59N 78°14' E 015°36'0 0.0
2019-Aug-15 11:29N 78°14' E 015°36'2 3.6
2019-Aug-15 11:00N 78°12' E 015°36'2243.5 998.7 3.9-0.2 9.2
2019-Aug-15 10:59N 78°14' E 015°36'0 0.0
2019-Aug-15 10:29N 78°14' E 015°36'2 3.6
2019-Aug-15 10:00N 78°12' E 015°36'2253.2 080 / 4998.3 3.9-0.7 9.2
2019-Aug-15 09:59N 78°14' E 015°36'0 0.0
2019-Aug-15 09:29N 78°14' E 015°36'2 3.6
2019-Aug-15 09:00N 78°12' E 015°36'230.7 240 / 4998.8 4.0-1.0 9.2
2019-Aug-15 08:56N 78°14' E 015°36'0 0.0
2019-Aug-15 08:29N 78°14' E 015°36'2 3.6
2019-Aug-15 08:00N 78°12' E 015°36'2253.2 998.7 4.6 0.3 9.1
2019-Aug-15 07:59N 78°14' E 015°36'0 0.0
2019-Aug-15 07:29N 78°14' E 015°36'2 3.6
2019-Aug-15 07:00N 78°12' E 015°36'2243.5 070 / 2999.0 4.7 0.4 9.2
2019-Aug-15 06:59N 78°14' E 015°36'0 0.0
2019-Aug-15 06:29N 78°14' E 015°36'2 3.6
2019-Aug-15 06:00N 78°12' E 015°36'2234.5 090 / 4999.4 3.9 0.9 9.2
2019-Aug-15 05:59N 78°14' E 015°36'0 0.0
2019-Aug-15 05:29N 78°14' E 015°36'2 3.6
2019-Aug-15 05:00N 78°12' E 015°36'2253.2 999.5 3.7 0.7 9.1
2019-Aug-15 04:59N 78°14' E 015°36'0 0.0
2019-Aug-15 04:29N 78°14' E 015°36'2 3.6
2019-Aug-15 04:00N 78°12' E 015°36'2253.2 999.7 3.5 1.1 9.0
2019-Aug-15 03:59N 78°14' E 015°36'0 0.0
2019-Aug-15 03:29N 78°14' E 015°36'2 3.6
2019-Aug-15 03:00N 78°12' E 015°36'2243.5 120 / 4999.7 3.0 1.1 9.0
2019-Aug-15 02:59N 78°14' E 015°36'0 0.0
2019-Aug-15 02:29N 78°14' E 015°36'2 3.6
2019-Aug-15 02:00N 78°12' E 015°36'2253.2 120 / 6999.9 2.7 1.0 8.9
2019-Aug-15 01:59N 78°14' E 015°36'0 0.0
2019-Aug-15 01:29N 78°14' E 015°36'2 3.6
2019-Aug-15 01:00N 78°12' E 015°36'2243.5 120 / 6999.9 2.7 1.1 8.8
2019-Aug-15 00:59N 78°14' E 015°36'0 0.0
2019-Aug-15 00:29N 78°14' E 015°36'2 3.6
2019-Aug-15 00:00N 78°12' E 015°36'2243.5 120 / 61000.1 2.9 1.2 8.8
2019-Aug-14 23:59N 78°14' E 015°36'0 0.0
2019-Aug-14 23:29N 78°14' E 015°36'2 3.6
2019-Aug-14 23:00N 78°12' E 015°36'2254.1 130 / 61000.0 2.9 1.1 8.7
2019-Aug-14 22:59N 78°14' E 015°36'0 0.0
2019-Aug-14 22:29N 78°14' E 015°36'2 3.6
2019-Aug-14 22:00N 78°12' E 015°36'2243.5 1000.4 3.8 1.1 8.8
2019-Aug-14 21:59N 78°14' E 015°36'0 0.0
2019-Aug-14 21:29N 78°14' E 015°36'2 3.6
2019-Aug-14 21:00N 78°12' E 015°36'2253.2 240 / 61000.6 3.4 0.4 8.7
2019-Aug-14 20:59N 78°14' E 015°36'0 0.0
2019-Aug-14 20:29N 78°14' E 015°36'2 3.6
2019-Aug-14 20:00N 78°12' E 015°36'2253.2 260 / 61001.0 3.8 0.4 8.6
2019-Aug-14 19:59N 78°14' E 015°36'0 0.0
2019-Aug-14 19:29N 78°14' E 015°36'2 3.6
2019-Aug-14 19:00N 78°12' E 015°36'2234.5 260 / 81001.5 3.5 0.7 8.6
2019-Aug-14 18:59N 78°14' E 015°36'0 0.0
2019-Aug-14 18:29N 78°14' E 015°36'2 3.6
2019-Aug-14 18:00N 78°12' E 015°36'2243.5 260 / 101001.9 3.9 1.1 8.6
2019-Aug-14 17:59N 78°14' E 015°36'0 0.0
2019-Aug-14 17:29N 78°14' E 015°36'2 3.6
2019-Aug-14 17:00N 78°12' E 015°36'2253.2 250 / 121002.1 3.8 0.2 8.4
2019-Aug-14 16:59N 78°14' E 015°36'0 0.2
2019-Aug-14 16:30N 78°14' E 015°36'2 3.7
2019-Aug-14 16:00N 78°12' E 015°36'22419.7 260 / 121002.4 4.3 0.1 8.5
2019-Aug-14 15:59N 78°14' E 015°35'0 0.0
2019-Aug-14 15:29N 78°14' E 015°35'2 4.0
2019-Aug-14 15:00N 78°12' E 015°36'23640.3 240 / 141002.5 4.8-0.1 8.5
2019-Aug-14 14:59N 78°14' E 015°35'0 0.0
2019-Aug-14 14:29N 78°14' E 015°35'2 4.1
2019-Aug-14 14:00N 78°12' E 015°36'23640.3 250 / 121002.7 4.8-0.0 8.4
2019-Aug-14 13:59N 78°14' E 015°35'0 0.0
2019-Aug-14 13:29N 78°14' E 015°35'2 4.1
2019-Aug-14 13:00N 78°12' E 015°36'22426.9 270 / 171003.0 4.6-0.0 8.5
2019-Aug-14 12:59N 78°14' E 015°35'0 0.0
2019-Aug-14 12:29N 78°14' E 015°35'2 4.0
2019-Aug-14 12:00N 78°12' E 015°36'21820.1 270 / 141003.2 4.6-0.7 8.4
2019-Aug-14 11:59N 78°14' E 015°35'0 0.0
2019-Aug-14 11:29N 78°14' E 015°35'2 4.1
2019-Aug-14 11:00N 78°12' E 015°36'21809.6 270 / 141003.3 4.6-0.9 8.5
2019-Aug-14 10:59N 78°14' E 015°35'0 0.0
2019-Aug-14 10:29N 78°14' E 015°35'2 4.0
2019-Aug-14 10:00N 78°12' E 015°36'23619.3 280 / 171003.6 4.4-0.7 8.5
2019-Aug-14 09:59N 78°14' E 015°35'0 0.0
2019-Aug-14 09:29N 78°14' E 015°35'2 4.0
2019-Aug-14 09:00N 78°12' E 015°36'21814.9 280 / 141003.9 4.5-0.3 8.5
2019-Aug-14 08:59N 78°14' E 015°35'0 0.0
2019-Aug-14 08:29N 78°14' E 015°35'2 4.0
2019-Aug-14 08:00N 78°12' E 015°36'   290 / 161004.3 4.3-0.1 8.4
Track history (hours):
 
Tides and Currents Weather Stations Pressure Air Temp Water Temp Dewpoint Dewpoint Depression Visibility Wind Speed Wind Dir Waves Ship Positions

Oceanographic research ship Maria S. Merian (Germany)

Last reported at 2019-Aug-24 08:00 UTC. Time now 2019-Aug-24 09:10 UTC.
Position N 73°30' W 009°06'.

Length 94.8 m; beam 19.2 m; draft 6.5 m.

Type: Other ship. MMSI: 211753000.

Wind from 190 at 16 knots

Barometer 1023.4 mb
Air temperature 5.9 ° C
Dewpoint 4.1 ° C
Water temperature 5.8 ° C

Date/timePositionNaut miles runAvg speedWind from/ knotsBaromVisibWave heightAir tempDewpointWater temp
2019-Aug-24 08:00N 73°30' W 009°06'0 0.0 190 / 161023.4 5.9 4.1 5.8
2019-Aug-24 07:00N 73°30' W 009°06'3 3.4 200 / 161023.7 5.8 4.1 5.7
2019-Aug-24 06:00N 73°30' W 009°18'8 7.9 210 / 141024.9 5.7 4.9 5.8
2019-Aug-24 05:00N 73°24' W 009°36'3 3.4 220 / 121024.9 5.1 4.9 5.8
2019-Aug-24 04:00N 73°24' W 009°48'8 7.9 220 / 141025.1 4.6 4.6 5.7
2019-Aug-24 03:00N 73°30' W 009°30'3 3.4 230 / 121025.5 4.0 4.0 5.9
2019-Aug-24 02:00N 73°30' W 009°18'8 7.9 230 / 161025.6 3.4 3.3 5.5
2019-Aug-24 01:00N 73°36' W 009°00'8 7.9 240 / 171025.4 3.3 3.0 5.5
2019-Aug-24 00:00N 73°42' W 008°42'5 5.1 240 / 161025.3 3.2 2.9 5.6
2019-Aug-23 23:00N 73°42' W 009°00'1212.1 220 / 141024.7 2.8 2.7 5.5
2019-Aug-23 22:00N 73°30' W 009°06'0 0.0 230 / 141025.1 3.1 2.6 5.7
2019-Aug-23 21:00N 73°30' W 009°06'2 1.7 230 / 121025.1 2.3 2.0 5.6
2019-Aug-23 20:00N 73°30' W 009°00'0 0.0 230 / 121024.4 2.2 1.7 5.8
2019-Aug-23 19:00N 73°30' W 009°00'0 0.0 220 / 121024.2 2.3 1.8 5.8
2019-Aug-23 18:00N 73°30' W 009°00'0 0.0 220 / 121024.8 2.2 1.6 5.9
2019-Aug-23 17:00N 73°30' W 009°00'0 0.0 230 / 101024.6 3.0 2.4 5.8
2019-Aug-23 16:00N 73°30' W 009°00'0 0.0 220 / 81024.6 2.4 1.7 5.9
2019-Aug-23 15:00N 73°30' W 009°00'0 0.0 240 / 81023.9 2.2 1.6 5.8
2019-Aug-23 14:00N 73°30' W 009°00'0 0.0 260 / 61023.5 2.8 1.8 5.9
2019-Aug-23 13:00N 73°30' W 009°00'6 6.2 230 / 81023.5 2.4 1.1 5.6
2019-Aug-23 12:00N 73°36' W 009°06'2 1.7 250 / 101022.9 2.9 1.6 5.6
2019-Aug-23 11:00N 73°36' W 009°12'8 7.9 220 / 61022.8 3.2 1.1 5.7
2019-Aug-23 10:00N 73°30' W 009°30'5 5.1 250 / 81022.5 2.4 0.6 5.7
2019-Aug-23 09:00N 73°30' W 009°48'2 1.7 210 / 81022.1 2.5 1.4 5.9
2019-Aug-23 08:00N 73°30' W 009°54'8 7.9 230 / 61021.6 2.2 1.1 5.5
2019-Aug-23 07:00N 73°36' W 009°36'5 5.1 260 / 61021.5 2.3 1.2 5.5
2019-Aug-23 06:00N 73°36' W 009°18'7 6.9 250 / 61021.9 2.3 1.6 5.7
2019-Aug-23 05:00N 73°42' W 009°06'3 3.4 250 / 81021.2 2.2 1.5 5.7
2019-Aug-23 04:00N 73°42' W 008°54'3 3.4 240 / 81020.9 2.9 1.7 5.4
2019-Aug-23 03:00N 73°42' W 009°06'0 0.0 240 / 101020.9 3.0 2.1 5.9
2019-Aug-23 02:00N 73°42' W 009°06'1212.0 260 / 101020.0 3.0 2.7 5.6
2019-Aug-23 01:00N 73°30' W 009°06'6 6.0 290 / 101020.0 4.0 3.7 6.0
2019-Aug-23 00:00N 73°36' W 009°06'0 0.0 300 / 101019.8 3.7 3.6 5.7
2019-Aug-22 23:00N 73°36' W 009°06'0 0.0 200 / 81019.5 4.9 3.5 5.9
2019-Aug-22 22:00N 73°36' W 009°06'0 0.0 140 / 121019.5 4.6 3.9 5.7
2019-Aug-22 21:00N 73°36' W 009°06'2 1.7 1019.5 5.1 4.5 5.8
2019-Aug-22 20:00N 73°36' W 009°00'0 0.0 1019.4 4.1 3.2 5.8
2019-Aug-22 19:00N 73°36' W 009°00'0 0.0 1019.2 5.5 2.7 5.6
2019-Aug-22 18:00N 73°36' W 009°00'0 0.0 220 / 61019.3 4.0 3.0 5.7
2019-Aug-22 17:00N 73°36' W 009°00'0 0.0 200 / 61019.2 3.8 2.6 5.5
2019-Aug-22 16:00N 73°36' W 009°00'6 6.2 220 / 81019.2 3.5 2.0 5.6
2019-Aug-22 15:00N 73°30' W 009°06'0 0.0 210 / 61019.0 3.4 2.4 5.8
2019-Aug-22 14:00N 73°30' W 009°06'0 0.0 210 / 81019.1 3.2 2.2 6.0
2019-Aug-22 13:00N 73°30' W 009°06'0 0.0 200 / 81019.0 3.2 2.3 6.0
2019-Aug-22 12:00N 73°30' W 009°06'0 0.0 200 / 81018.8 3.3 1.8 5.9
2019-Aug-22 11:00N 73°30' W 009°06'0 0.0 200 / 81018.8 3.4 1.7 5.8
2019-Aug-22 10:00N 73°30' W 009°06'0 0.0 200 / 81018.8 3.0 1.9 5.9
2019-Aug-22 09:00N 73°30' W 009°06'0 0.0 210 / 61018.7 2.8 1.8 6.0
2019-Aug-22 08:00N 73°30' W 009°06'0 0.0 190 / 81018.4 3.1 1.8 5.9
2019-Aug-22 07:00N 73°30' W 009°06'0 0.0 210 / 81018.1 3.4 2.8 5.8
2019-Aug-22 06:00N 73°30' W 009°06'3 3.4 200 / 41019.1 3.1 2.4 5.9
2019-Aug-22 05:00N 73°30' W 009°18'0 0.0 200 / 21019.0 3.2 2.4 5.9
2019-Aug-22 04:00N 73°30' W 009°18'0 0.0 210 / 41018.6 3.3 1.3 5.9
2019-Aug-22 03:00N 73°30' W 009°18'6 6.0 200 / 81019.0 3.9 1.2 5.9
2019-Aug-22 02:00N 73°24' W 009°18'0 0.0 230 / 101018.5 3.9 2.5 5.9
2019-Aug-22 01:00N 73°24' W 009°18'0 0.0 230 / 61018.5 3.7 2.9 6.0
2019-Aug-22 00:00N 73°24' W 009°18'2 1.7 200 / 81018.4 3.5 2.1 6.0
2019-Aug-21 23:00N 73°24' W 009°24'0 0.0 190 / 61018.4 3.9 2.0 6.0
2019-Aug-21 22:00N 73°24' W 009°24'0 0.0 180 / 81018.0 4.1 0.2 6.1
2019-Aug-21 21:00N 73°24' W 009°24'0 0.0 200 / 81017.8 4.2 0.1 5.9
2019-Aug-21 20:00N 73°24' W 009°24'0 0.0 240 / 61017.9 4.6 0.4 5.9
2019-Aug-21 19:00N 73°24' W 009°24'7 6.9 1018.0 5.2 1.7 6.0
2019-Aug-21 18:00N 73°24' W 009°00'9 9.1 1018.0 4.1 0.5 6.0
2019-Aug-21 17:00N 73°30' W 008°36'8 7.9 290 / 41017.9 3.9 0.2 5.7
2019-Aug-21 16:00N 73°36' W 008°18'7 6.8 310 / 41017.9 3.2 1.7 5.7
2019-Aug-21 15:00N 73°36' W 007°54'9 9.0 300 / 101017.8 2.7 0.9 5.7
2019-Aug-21 14:00N 73°42' W 007°30'9 9.0 300 / 81017.7 2.2 1.3 5.9
2019-Aug-21 13:00N 73°48' W 007°06'9 9.0 310 / 81017.4 1.9 0.8 5.9
2019-Aug-21 12:00N 73°54' W 006°42'7 6.7 310 / 81017.4 1.8 0.7 5.9
2019-Aug-21 11:00N 73°54' W 006°18'9 8.9 290 / 61017.1 1.7 0.7 6.4
2019-Aug-21 10:00N 74°00' W 005°54'9 8.9 310 / 41016.8 1.9 1.1 6.0
2019-Aug-21 09:00N 74°06' W 005°30'9 8.9 310 / 61016.4 1.6 0.8 6.2
2019-Aug-21 08:00N 74°12' W 005°06'7 6.5 310 / 41016.1 2.2 1.3 6.0
2019-Aug-21 07:00N 74°12' W 004°42'9 8.9 330 / 41015.8 2.5 1.4 6.2
2019-Aug-21 06:00N 74°18' W 004°18'9 8.8 310 / 81016.3 2.8 1.4 6.3
2019-Aug-21 05:00N 74°24' W 003°54'9 8.8 310 / 81015.3 2.9 1.4 6.1
2019-Aug-21 04:00N 74°30' W 003°30'5 4.8 310 / 101015.1 3.0 1.4 5.9
2019-Aug-21 03:00N 74°30' W 003°12'0 0.0 300 / 101015.0 4.1 1.6 5.6
2019-Aug-21 02:00N 74°30' W 003°12'0 0.0 300 / 101014.7 3.6 1.8 6.0
2019-Aug-21 01:00N 74°30' W 003°12'6 6.2 300 / 101014.5 3.6 1.7 5.9
2019-Aug-21 00:00N 74°36' W 003°06'1413.6 300 / 101014.2 3.0 2.0 6.0
2019-Aug-20 23:00N 74°48' W 002°42'1312.9 310 / 101014.1 2.8 1.8 6.1
2019-Aug-20 22:00N 75°00' W 002°24'1313.5 320 / 101014.6 2.6 1.9 6.6
2019-Aug-20 21:00N 75°12' W 002°00'8 7.5 340 / 141013.6 2.4 1.6 6.4
2019-Aug-20 20:00N 75°18' W 001°42'7 6.7 320 / 121013.3 2.6 1.6 6.8
2019-Aug-20 19:00N 75°24' W 001°30'1312.8 320 / 121013.1 2.4 1.5 6.4
2019-Aug-20 18:00N 75°36' W 001°12'1313.4 330 / 141012.7 2.7 1.0 6.0
2019-Aug-20 17:00N 75°48' W 000°48'8 8.4 330 / 161012.0 3.0 1.5 7.2
2019-Aug-20 16:00N 75°54' W 000°24'1313.3 340 / 171011.6 3.1 1.3 7.0
2019-Aug-20 15:00N 76°06' E 000°00'1313.3 340 / 161011.4 2.9 2.0 7.3
2019-Aug-20 14:00N 76°18' E 000°24'1313.3 330 / 161010.9 2.3 1.5 6.6
2019-Aug-20 13:00N 76°30' E 000°48'1313.2 330 / 161011.2 2.2 1.2 5.8
2019-Aug-20 12:00N 76°42' E 001°12'1413.8 340 / 171011.1 2.5 1.6 6.5
2019-Aug-20 11:00N 76°54' E 001°42'1313.2 340 / 171010.9 2.8 1.5 5.9
2019-Aug-20 10:00N 77°06' E 002°06'1413.7 350 / 171010.6 3.4 1.9 5.6
2019-Aug-20 09:00N 77°18' E 002°36'1313.1 340 / 171010.6 3.4 2.5 6.1
2019-Aug-20 08:00N 77°30' E 003°00'1413.6 340 / 171010.0 3.9 3.0 5.7
2019-Aug-20 07:00N 77°42' E 003°30'1313.0 350 / 141010.5 4.4 2.7 6.4
2019-Aug-20 06:00N 77°54' E 003°54'1413.5 360 / 141010.7 4.2 2.1 5.9
2019-Aug-20 05:00N 78°06' E 004°24'9 8.6 350 / 161010.8 4.4 1.7 5.8
2019-Aug-20 04:00N 78°12' E 004°54'1313.5 360 / 141010.8 4.4 2.2 6.2
2019-Aug-20 03:00N 78°24' E 005°24'1313.4 350 / 161010.9 4.3 1.5 6.4
2019-Aug-20 02:00N 78°36' E 005°54'1313.4 360 / 141012.0 4.5 2.0 6.3
2019-Aug-20 01:00N 78°48' E 006°24'1313.3 360 / 141012.3 4.4 1.6 6.6
2019-Aug-20 00:00N 79°00' E 006°54'0 0.0 010 / 121011.7 4.3 0.5 6.8
2019-Aug-19 23:00N 79°00' E 006°54'0 0.0 010 / 121011.4 4.4 1.2 6.9
2019-Aug-19 22:00N 79°00' E 006°54'0 0.0 010 / 101011.9 4.4 1.3 6.9
2019-Aug-19 21:00N 79°00' E 006°54'0 0.0 350 / 81012.0 4.2 1.3 6.8
2019-Aug-19 20:00N 79°00' E 006°54'0 0.0 350 / 81011.9 4.0 0.9 7.0
2019-Aug-19 19:00N 79°00' E 006°54'0 0.0 350 / 61011.8 4.3 0.6 7.0
2019-Aug-19 18:00N 79°00' E 006°54'0 0.0 320 / 41011.5 4.5 0.7 7.0
2019-Aug-19 17:00N 79°00' E 006°54'0 0.0 320 / 41012.0 4.2 0.4 7.1
2019-Aug-19 16:00N 79°00' E 006°54'0 0.0 1012.0 4.5 0.7 7.1
2019-Aug-19 15:00N 79°00' E 006°54'0 0.0 1012.0 4.1 0.2 7.0
2019-Aug-19 14:00N 79°00' E 006°54'0 0.0 1011.8 4.9 0.1 7.0
2019-Aug-19 13:00N 79°00' E 006°54'0 0.0 1012.0 4.0 0.1 7.0
2019-Aug-19 12:00N 79°00' E 006°54'0 0.0 1011.9 5.0 0.3 7.1
2019-Aug-19 11:00N 79°00' E 006°54'0 0.0 060 / 21011.8 3.8 0.2 7.1
2019-Aug-19 10:00N 79°00' E 006°54'0 0.0 1011.7 3.7 0.2 7.0
2019-Aug-19 09:00N 79°00' E 006°54'0 0.0 1011.8 3.5 0.2 7.0
2019-Aug-19 08:00N 79°00' E 006°54'0 0.0 250 / 41011.9 5.0 1.2 7.0
2019-Aug-19 07:00N 79°00' E 006°54'0 0.0 280 / 41011.7 3.2 0.3 7.0
2019-Aug-19 06:00N 79°00' E 006°54'1 1.1 270 / 21012.5 3.0-0.1 6.9
2019-Aug-19 05:00N 79°00' E 007°00'7 6.9 1012.1 2.9 0.5 6.7
2019-Aug-19 04:00N 78°54' E 007°18'2 2.3 330 / 41012.1 2.9 1.3 6.8
2019-Aug-19 03:00N 78°54' E 007°30'7 6.9 1012.0 3.4 1.8 6.6
2019-Aug-19 02:00N 78°48' E 007°48'129.9 350 / 41012.1 3.3 1.4 6.8
2019-Aug-19 01:57N 78°49' E 007°46'2 5.3
2019-Aug-19 01:29N 78°48' E 007°54'612.1
2019-Aug-19 01:00N 78°42' E 008°06'390.8 330 / 41012.0 3.4 1.2 6.6
2019-Aug-19 00:57N 78°45' E 008°04'5 5.3
2019-Aug-19 00:04N 78°42' E 008°20'112.6
2019-Aug-19 00:00N 78°42' E 008°24'7 7.0 340 / 41011.7 3.4 1.4 6.7
2019-Aug-18 23:00N 78°36' E 008°42'7 7.0 1010.9 3.0 1.3 5.9
2019-Aug-18 22:00N 78°30' E 009°00'4 3.6 330 / 41010.8 3.0 1.5 5.9
2019-Aug-18 21:00N 78°30' E 009°18'2 4.6 350 / 21010.6 3.1-0.4 6.1
2019-Aug-18 20:38N 78°28' E 009°20'1 5.3
2019-Aug-18 20:29N 78°28' E 009°23'3 5.2
2019-Aug-18 20:00N 78°26' E 009°31'2180.9
2019-Aug-18 20:00N 78°24' E 009°36'1 1.7 330 / 41010.1 2.9 0.3 6.1
2019-Aug-18 19:30N 78°24' E 009°40'712.9
2019-Aug-18 19:00N 78°18' E 009°54'4816.6 1010.0 3.2-0.3 6.4
2019-Aug-18 18:59N 78°22' E 009°49'3 5.3
2019-Aug-18 18:30N 78°20' E 009°57'3 5.3
2019-Aug-18 18:00N 78°18' E 010°06'1132.7
2019-Aug-18 18:00N 78°18' E 010°12'2 4.0 1009.8 2.7 0.3 6.6
2019-Aug-18 17:30N 78°16' E 010°15'3 5.3
2019-Aug-18 17:00N 78°14' E 010°23'3207.7
2019-Aug-18 17:00N 78°12' E 010°30'0 1.0 1010.0 3.6 0.4 6.5
2019-Aug-18 16:30N 78°12' E 010°32'3 5.3
2019-Aug-18 16:00N 78°10' E 010°41'2162.1
2019-Aug-18 16:00N 78°12' E 010°48'4 7.6 350 / 41009.6 3.4 0.3 6.3
2019-Aug-18 15:30N 78°08' E 010°49'1 1.9
2019-Aug-18 15:00N 78°08' E 010°52'2397.9
2019-Aug-18 15:00N 78°06' E 010°54'2 3.2 360 / 61009.6 3.7 0.5 6.3
2019-Aug-18 14:30N 78°08' E 010°52'0 0.0
2019-Aug-18 14:00N 78°08' E 010°52'2397.9
2019-Aug-18 14:00N 78°06' E 010°54'2 3.1 300 / 41009.6 3.9-0.4 6.5
2019-Aug-18 13:30N 78°08' E 010°52'0 0.0
2019-Aug-18 13:00N 78°08' E 010°52'2232.1
2019-Aug-18 13:00N 78°06' E 010°54'2 3.2 350 / 41009.5 4.0 0.7 6.7
2019-Aug-18 12:30N 78°08' E 010°52'0 0.0
2019-Aug-18 12:00N 78°08' E 010°52'2179.2
2019-Aug-18 12:00N 78°06' E 011°00'3 6.1 330 / 41009.6 3.2 0.5 6.4
2019-Aug-18 11:29N 78°07' E 011°14'612.2
2019-Aug-18 11:00N 78°07' E 011°43'4315.9
2019-Aug-18 11:00N 78°06' E 012°00'3 5.9 340 / 61009.2 3.3 1.4 6.1
2019-Aug-18 10:29N 78°07' E 012°14'612.4
2019-Aug-18 10:00N 78°07' E 012°43'4405.1
2019-Aug-18 10:00N 78°06' E 013°00'3 5.8 280 / 61009.0 4.0 0.5 6.2
2019-Aug-18 09:30N 78°07' E 013°13'611.9
2019-Aug-18 09:00N 78°09' E 013°41'51430.4
2019-Aug-18 09:00N 78°12' E 014°00'2 4.5 240 / 81008.7 4.0 1.1 7.3
2019-Aug-18 08:29N 78°11' E 014°09'611.9
2019-Aug-18 08:00N 78°13' E 014°36'41937.5
2019-Aug-18 08:00N 78°12' E 014°54'8 8.2 230 / 121008.4 3.9 1.3 7.4
2019-Aug-18 07:00N 78°16' E 015°30'4418.5
2019-Aug-18 07:00N 78°12' E 015°36'2 4.0 250 / 61008.2 6.3 0.9 9.1
2019-Aug-18 06:28N 78°14' E 015°35'2 4.5
2019-Aug-18 06:00N 78°12' E 015°36'268.2 1008.0 5.5 0.8 9.1
2019-Aug-18 05:58N 78°14' E 015°35'0 0.0
2019-Aug-18 05:28N 78°14' E 015°35'2 4.5
2019-Aug-18 05:00N 78°12' E 015°36'267.6 1008.3 5.0 1.0 9.1
2019-Aug-18 04:58N 78°14' E 015°35'0 0.0
2019-Aug-18 04:28N 78°14' E 015°35'2 4.5
2019-Aug-18 04:00N 78°12' E 015°36'267.6 350 / 61008.1 4.1 0.4 8.9
2019-Aug-18 03:58N 78°14' E 015°35'0 0.0
2019-Aug-18 03:28N 78°14' E 015°35'2 4.5
2019-Aug-18 03:00N 78°12' E 015°36'267.0 300 / 41008.0 4.0 0.5 9.0
2019-Aug-18 02:58N 78°14' E 015°35'0 0.0
2019-Aug-18 02:28N 78°14' E 015°35'2 4.5
2019-Aug-18 02:00N 78°12' E 015°36'267.6 250 / 61007.4 3.9 0.7 9.0
2019-Aug-18 01:58N 78°14' E 015°35'0 0.0
2019-Aug-18 01:28N 78°14' E 015°35'2 4.5
2019-Aug-18 01:00N 78°12' E 015°36'268.2 260 / 61007.4 3.8 0.8 8.9
2019-Aug-18 00:58N 78°14' E 015°35'0 0.0
2019-Aug-18 00:28N 78°14' E 015°35'2 4.5
2019-Aug-18 00:00N 78°12' E 015°36'267.6 240 / 61007.2 4.0 0.7 8.9
2019-Aug-17 23:58N 78°14' E 015°35'0 0.0
2019-Aug-17 23:28N 78°14' E 015°35'2 4.5
2019-Aug-17 23:00N 78°12' E 015°36'267.6 220 / 61007.0 4.0 0.4 8.9
2019-Aug-17 22:58N 78°14' E 015°35'0 0.0
2019-Aug-17 22:28N 78°14' E 015°35'2 4.5
2019-Aug-17 22:00N 78°12' E 015°36'267.6 170 / 41006.6 4.7 1.1 9.0
2019-Aug-17 21:58N 78°14' E 015°35'0 0.0
2019-Aug-17 21:28N 78°14' E 015°35'2 4.5
2019-Aug-17 21:00N 78°12' E 015°36'267.6 220 / 41006.7 4.3 1.1 9.1
2019-Aug-17 20:58N 78°14' E 015°35'0 0.0
2019-Aug-17 20:28N 78°14' E 015°35'2 4.5
2019-Aug-17 20:00N 78°12' E 015°36'267.6 260 / 81006.2 4.3 0.7 9.0
2019-Aug-17 19:58N 78°14' E 015°35'0 0.0
2019-Aug-17 19:28N 78°14' E 015°35'2 4.5
2019-Aug-17 19:00N 78°12' E 015°36'267.6 230 / 121005.6 4.2 0.9 9.0
2019-Aug-17 18:58N 78°14' E 015°35'0 0.0
2019-Aug-17 18:28N 78°14' E 015°35'2 4.5
2019-Aug-17 18:00N 78°12' E 015°36'2 4.0 250 / 141005.5 4.2 1.3 9.0
2019-Aug-17 17:28N 78°14' E 015°35'2 4.5
2019-Aug-17 17:00N 78°12' E 015°36'226.2 260 / 101005.5 4.3 1.0 8.9
2019-Aug-17 16:55N 78°14' E 015°35'0 0.0
2019-Aug-17 16:28N 78°14' E 015°35'2 4.5
2019-Aug-17 16:00N 78°12' E 015°36'268.2 250 / 141004.8 4.2 1.4 8.9
2019-Aug-17 15:58N 78°14' E 015°35'0 0.0
2019-Aug-17 15:28N 78°14' E 015°35'2 4.5
2019-Aug-17 15:00N 78°12' E 015°36'267.0 250 / 171004.5 4.6 0.5 8.8
2019-Aug-17 14:58N 78°14' E 015°35'0 0.0
2019-Aug-17 14:28N 78°14' E 015°35'2 4.5
2019-Aug-17 14:00N 78°12' E 015°36'268.2 240 / 191004.2 4.6 0.2 8.9
2019-Aug-17 13:58N 78°14' E 015°35'0 0.0
2019-Aug-17 13:28N 78°14' E 015°35'2 4.5
2019-Aug-17 13:00N 78°12' E 015°36'268.2 250 / 141004.4 4.5 0.4 8.9
2019-Aug-17 12:58N 78°14' E 015°35'0 0.0
2019-Aug-17 12:28N 78°14' E 015°35'2 4.5
2019-Aug-17 12:00N 78°12' E 015°36'267.6 250 / 101004.2 4.6 0.6 8.8
2019-Aug-17 11:58N 78°14' E 015°35'0 0.0
2019-Aug-17 11:28N 78°14' E 015°35'2 4.5
2019-Aug-17 11:00N 78°12' E 015°36'267.6 250 / 141003.8 4.6-0.0 8.9
2019-Aug-17 10:58N 78°14' E 015°35'0 0.0
2019-Aug-17 10:28N 78°14' E 015°35'2 4.5
2019-Aug-17 10:00N 78°12' E 015°36'267.6 240 / 161003.1 4.5 0.4 8.8
2019-Aug-17 09:58N 78°14' E 015°35'0 0.0
2019-Aug-17 09:28N 78°14' E 015°35'2 4.5
2019-Aug-17 09:00N 78°12' E 015°36'267.6 250 / 101003.2 4.3-0.3 8.8
2019-Aug-17 08:58N 78°14' E 015°35'0 0.0
2019-Aug-17 08:28N 78°14' E 015°35'2 4.5
2019-Aug-17 08:00N 78°12' E 015°36'267.6 250 / 161003.0 4.2-0.2 8.9
2019-Aug-17 07:58N 78°14' E 015°35'0 0.0
2019-Aug-17 07:28N 78°14' E 015°35'2 4.5
2019-Aug-17 07:00N 78°12' E 015°36'267.6 240 / 141002.8 3.9-0.2 8.8
2019-Aug-17 06:58N 78°14' E 015°35'0 0.0
2019-Aug-17 06:28N 78°14' E 015°35'2 4.5
2019-Aug-17 06:00N 78°12' E 015°36'267.6 250 / 141002.7 3.9-0.2 8.7
2019-Aug-17 05:58N 78°14' E 015°35'0 0.0
2019-Aug-17 05:28N 78°14' E 015°35'2 4.5
2019-Aug-17 05:00N 78°12' E 015°36'267.6 250 / 121002.4 3.8-0.0 8.8
2019-Aug-17 04:58N 78°14' E 015°35'0 0.0
2019-Aug-17 04:28N 78°14' E 015°35'2 4.5
2019-Aug-17 04:00N 78°12' E 015°36'267.0 260 / 121002.3 3.6 0.1 8.8
2019-Aug-17 03:58N 78°14' E 015°35'0 0.0
2019-Aug-17 03:28N 78°14' E 015°35'2 4.5
2019-Aug-17 03:00N 78°12' E 015°36'268.2 250 / 141002.0 3.4-0.0 8.7
2019-Aug-17 02:58N 78°14' E 015°35'0 0.0
2019-Aug-17 02:28N 78°14' E 015°35'2 4.5
2019-Aug-17 02:00N 78°12' E 015°36'268.2 240 / 121001.7 3.5-0.0 8.8
2019-Aug-17 01:58N 78°14' E 015°35'0 0.0
2019-Aug-17 01:28N 78°14' E 015°35'2 4.5
2019-Aug-17 01:00N 78°12' E 015°36'267.6 240 / 141001.3 3.6 0.6 8.8
2019-Aug-17 00:58N 78°14' E 015°35'0 0.0
2019-Aug-17 00:28N 78°14' E 015°35'2 4.5
2019-Aug-17 00:00N 78°12' E 015°36'267.6 250 / 191001.0 3.8 0.6 8.8
2019-Aug-16 23:58N 78°14' E 015°35'0 0.0
2019-Aug-16 23:28N 78°14' E 015°35'2 4.5
2019-Aug-16 23:00N 78°12' E 015°36'268.0 240 / 101001.2 3.9 0.5 8.8
2019-Aug-16 22:58N 78°14' E 015°35'0 0.0
2019-Aug-16 22:28N 78°14' E 015°35'2 4.5
2019-Aug-16 22:00N 78°12' E 015°36'267.4 240 / 171001.0 4.0 0.6 8.9
2019-Aug-16 21:58N 78°14' E 015°35'0 0.0
2019-Aug-16 21:28N 78°14' E 015°35'2 4.5
2019-Aug-16 21:00N 78°12' E 015°36'268.0 250 / 171000.7 3.9 0.4 9.0
2019-Aug-16 20:58N 78°14' E 015°35'0 0.0
2019-Aug-16 20:28N 78°14' E 015°35'2 4.5
2019-Aug-16 20:00N 78°12' E 015°36'268.2 260 / 141000.5 3.9 0.1 9.0
2019-Aug-16 19:58N 78°14' E 015°35'0 0.0
2019-Aug-16 19:28N 78°14' E 015°35'2 4.5
2019-Aug-16 19:00N 78°12' E 015°36'267.6 250 / 171000.3 3.6 0.6 9.2
2019-Aug-16 18:58N 78°14' E 015°35'0 0.0
2019-Aug-16 18:28N 78°14' E 015°35'2 4.5
2019-Aug-16 18:00N 78°12' E 015°36'267.6 260 / 141000.0 4.0-0.4 8.9
2019-Aug-16 17:58N 78°14' E 015°35'0 0.0
2019-Aug-16 17:28N 78°14' E 015°35'2 4.5
2019-Aug-16 17:00N 78°12' E 015°36'2243.5 270 / 8999.8 4.1-0.1 9.8
2019-Aug-16 16:59N 78°14' E 015°36'0 0.0
2019-Aug-16 16:29N 78°14' E 015°36'2 3.6
2019-Aug-16 16:00N 78°12' E 015°36'2243.5 270 / 121000.4 4.5 0.6 9.9
2019-Aug-16 15:59N 78°14' E 015°36'0 0.0
2019-Aug-16 15:29N 78°14' E 015°36'2 3.6
2019-Aug-16 15:00N 78°12' E 015°36'2243.5 240 / 14999.8 4.6-0.2 9.6
2019-Aug-16 14:59N 78°14' E 015°36'0 0.0
2019-Aug-16 14:29N 78°14' E 015°36'2 3.6
2019-Aug-16 14:00N 78°12' E 015°36'2243.5 220 / 81000.5 4.6-1.1 9.6
2019-Aug-16 13:59N 78°14' E 015°36'0 0.0
2019-Aug-16 13:29N 78°14' E 015°36'2 3.6
2019-Aug-16 13:00N 78°12' E 015°36'2263.8 230 / 101000.7 4.4-1.3 9.7
2019-Aug-16 12:59N 78°14' E 015°36'0 0.0
2019-Aug-16 12:29N 78°14' E 015°36'2 3.6
2019-Aug-16 12:00N 78°12' E 015°36'2234.5 240 / 61000.8 4.4-1.0 9.7
2019-Aug-16 11:59N 78°14' E 015°36'0 0.0
2019-Aug-16 11:29N 78°14' E 015°36'2 3.6
2019-Aug-16 11:00N 78°12' E 015°36'2253.2 240 / 61000.5 3.9-0.1 9.8
2019-Aug-16 10:59N 78°14' E 015°36'0 0.0
2019-Aug-16 10:29N 78°14' E 015°36'2 3.6
2019-Aug-16 10:00N 78°12' E 015°36'2253.2 1000.2 5.2 0.6 9.9
2019-Aug-16 09:59N 78°14' E 015°36'0 0.0
2019-Aug-16 09:29N 78°14' E 015°36'2 3.6
2019-Aug-16 09:00N 78°12' E 015°36'2253.2 070 / 21000.2 3.9 1.5 9.7
2019-Aug-16 08:59N 78°14' E 015°36'0 0.0
2019-Aug-16 08:29N 78°14' E 015°36'2 3.6
2019-Aug-16 08:00N 78°12' E 015°36'2243.5 100 / 41000.3 2.3 0.7 9.6
2019-Aug-16 07:59N 78°14' E 015°36'0 0.0
2019-Aug-16 07:29N 78°14' E 015°36'2 3.6
2019-Aug-16 07:00N 78°12' E 015°36'2253.2 100 / 41000.6 2.0 1.0 9.6
2019-Aug-16 06:59N 78°14' E 015°36'0 0.0
2019-Aug-16 06:29N 78°14' E 015°36'2 3.6
2019-Aug-16 06:00N 78°12' E 015°36'2253.2 1000.5 1.9 0.5 9.6
2019-Aug-16 05:59N 78°14' E 015°36'0 0.0
2019-Aug-16 05:29N 78°14' E 015°36'2 3.6
2019-Aug-16 05:00N 78°12' E 015°36'2253.2 270 / 21000.3 1.2 0.4 9.6
2019-Aug-16 04:59N 78°14' E 015°36'0 0.0
2019-Aug-16 04:29N 78°14' E 015°36'2 3.6
2019-Aug-16 04:00N 78°12' E 015°36'2234.5 1000.1 1.8 1.0 9.5
2019-Aug-16 03:59N 78°14' E 015°36'0 0.0
2019-Aug-16 03:29N 78°14' E 015°36'2 3.6
2019-Aug-16 03:00N 78°12' E 015°36'2243.5 1000.0 1.6 0.7 9.5
2019-Aug-16 02:59N 78°14' E 015°36'0 0.0
2019-Aug-16 02:29N 78°14' E 015°36'2 3.6
2019-Aug-16 02:00N 78°12' E 015°36'2243.5 999.9 1.3 0.5 9.5
2019-Aug-16 01:59N 78°14' E 015°36'0 0.0
2019-Aug-16 01:29N 78°14' E 015°36'2 3.6
2019-Aug-16 01:00N 78°12' E 015°36'2253.2 210 / 2999.8 1.5 0.1 9.6
2019-Aug-16 00:59N 78°14' E 015°36'0 0.0
2019-Aug-16 00:29N 78°14' E 015°36'2 3.6
2019-Aug-16 00:00N 78°12' E 015°36'2253.2 100 / 4999.5 1.3 0.6 9.6
2019-Aug-15 23:59N 78°14' E 015°36'0 0.0
2019-Aug-15 23:29N 78°14' E 015°36'2 3.6
2019-Aug-15 23:00N 78°12' E 015°36'2243.5 130 / 2999.5 0.6-0.0 9.6
2019-Aug-15 22:59N 78°14' E 015°36'0 0.0
2019-Aug-15 22:29N 78°14' E 015°36'2 3.6
2019-Aug-15 22:00N 78°12' E 015°36'2243.5 340 / 4999.2 1.4-0.0 9.6
2019-Aug-15 21:59N 78°14' E 015°36'0 0.0
2019-Aug-15 21:29N 78°14' E 015°36'2 3.6
2019-Aug-15 21:00N 78°12' E 015°36'2253.2 998.6 2.7-0.1 9.6
2019-Aug-15 20:59N 78°14' E 015°36'0 0.0
2019-Aug-15 20:29N 78°14' E 015°36'2 3.6
2019-Aug-15 20:00N 78°12' E 015°36'2243.5 190 / 6998.9 3.1-0.5 9.7
2019-Aug-15 19:59N 78°14' E 015°36'0 0.0
2019-Aug-15 19:29N 78°14' E 015°36'2 3.6
2019-Aug-15 19:00N 78°12' E 015°36'2253.2 998.8 3.0 0.1 9.5
2019-Aug-15 18:59N 78°14' E 015°36'0 0.0
2019-Aug-15 18:29N 78°14' E 015°36'2 3.6
2019-Aug-15 18:00N 78°12' E 015°36'2243.5 998.9 2.7-0.4 9.5
2019-Aug-15 17:59N 78°14' E 015°36'0 0.0
2019-Aug-15 17:29N 78°14' E 015°36'2 3.6
2019-Aug-15 17:00N 78°12' E 015°36'2243.5 210 / 6998.7 3.4-0.7 9.4
2019-Aug-15 16:59N 78°14' E 015°36'0 0.0
2019-Aug-15 16:29N 78°14' E 015°36'2 3.6
2019-Aug-15 16:00N 78°12' E 015°36'2243.5 240 / 12998.6 3.7-0.0 9.4
2019-Aug-15 15:59N 78°14' E 015°36'0 0.0
2019-Aug-15 15:29N 78°14' E 015°36'2 3.6
2019-Aug-15 15:00N 78°12' E 015°36'2253.2 250 / 8998.4 4.1 0.5 9.4
2019-Aug-15 14:59N 78°14' E 015°36'0 0.0
2019-Aug-15 14:29N 78°14' E 015°36'2 3.6
2019-Aug-15 14:00N 78°12' E 015°36'2243.5 240 / 6998.2 3.9 0.8 9.3
2019-Aug-15 13:59N 78°14' E 015°36'0 0.0
2019-Aug-15 13:29N 78°14' E 015°36'2 3.6
2019-Aug-15 13:00N 78°12' E 015°36'2244.3 080 / 4998.3 4.0 1.0 9.3
2019-Aug-15 12:59N 78°14' E 015°36'0 0.0
2019-Aug-15 12:29N 78°14' E 015°36'2 3.6
2019-Aug-15 12:00N 78°12' E 015°36'2243.5 998.5 3.9 1.1 9.3
2019-Aug-15 11:59N 78°14' E 015°36'0 0.0
2019-Aug-15 11:29N 78°14' E 015°36'2 3.6
2019-Aug-15 11:00N 78°12' E 015°36'2243.5 998.7 3.9-0.2 9.2
2019-Aug-15 10:59N 78°14' E 015°36'0 0.0
2019-Aug-15 10:29N 78°14' E 015°36'2 3.6
2019-Aug-15 10:00N 78°12' E 015°36'2253.2 080 / 4998.3 3.9-0.7 9.2
2019-Aug-15 09:59N 78°14' E 015°36'0 0.0
2019-Aug-15 09:29N 78°14' E 015°36'2 3.6
2019-Aug-15 09:00N 78°12' E 015°36'230.7 240 / 4998.8 4.0-1.0 9.2
2019-Aug-15 08:56N 78°14' E 015°36'0 0.0
2019-Aug-15 08:29N 78°14' E 015°36'2 3.6
2019-Aug-15 08:00N 78°12' E 015°36'2253.2 998.7 4.6 0.3 9.1
2019-Aug-15 07:59N 78°14' E 015°36'0 0.0
2019-Aug-15 07:29N 78°14' E 015°36'2 3.6
2019-Aug-15 07:00N 78°12' E 015°36'2243.5 070 / 2999.0 4.7 0.4 9.2
2019-Aug-15 06:59N 78°14' E 015°36'0 0.0
2019-Aug-15 06:29N 78°14' E 015°36'2 3.6
2019-Aug-15 06:00N 78°12' E 015°36'2234.5 090 / 4999.4 3.9 0.9 9.2
2019-Aug-15 05:59N 78°14' E 015°36'0 0.0
2019-Aug-15 05:29N 78°14' E 015°36'2 3.6
2019-Aug-15 05:00N 78°12' E 015°36'2253.2 999.5 3.7 0.7 9.1
2019-Aug-15 04:59N 78°14' E 015°36'0 0.0
2019-Aug-15 04:29N 78°14' E 015°36'2 3.6
2019-Aug-15 04:00N 78°12' E 015°36'2253.2 999.7 3.5 1.1 9.0
2019-Aug-15 03:59N 78°14' E 015°36'0 0.0
2019-Aug-15 03:29N 78°14' E 015°36'2 3.6
2019-Aug-15 03:00N 78°12' E 015°36'2243.5 120 / 4999.7 3.0 1.1 9.0
2019-Aug-15 02:59N 78°14' E 015°36'0 0.0
2019-Aug-15 02:29N 78°14' E 015°36'2 3.6
2019-Aug-15 02:00N 78°12' E 015°36'2253.2 120 / 6999.9 2.7 1.0 8.9
2019-Aug-15 01:59N 78°14' E 015°36'0 0.0
2019-Aug-15 01:29N 78°14' E 015°36'2 3.6
2019-Aug-15 01:00N 78°12' E 015°36'2243.5 120 / 6999.9 2.7 1.1 8.8
2019-Aug-15 00:59N 78°14' E 015°36'0 0.0
2019-Aug-15 00:29N 78°14' E 015°36'2 3.6
2019-Aug-15 00:00N 78°12' E 015°36'2243.5 120 / 61000.1 2.9 1.2 8.8
2019-Aug-14 23:59N 78°14' E 015°36'0 0.0
2019-Aug-14 23:29N 78°14' E 015°36'2 3.6
2019-Aug-14 23:00N 78°12' E 015°36'2254.1 130 / 61000.0 2.9 1.1 8.7
2019-Aug-14 22:59N 78°14' E 015°36'0 0.0
2019-Aug-14 22:29N 78°14' E 015°36'2 3.6
2019-Aug-14 22:00N 78°12' E 015°36'2243.5 1000.4 3.8 1.1 8.8
2019-Aug-14 21:59N 78°14' E 015°36'0 0.0
2019-Aug-14 21:29N 78°14' E 015°36'2 3.6
2019-Aug-14 21:00N 78°12' E 015°36'2253.2 240 / 61000.6 3.4 0.4 8.7
2019-Aug-14 20:59N 78°14' E 015°36'0 0.0
2019-Aug-14 20:29N 78°14' E 015°36'2 3.6
2019-Aug-14 20:00N 78°12' E 015°36'2253.2 260 / 61001.0 3.8 0.4 8.6
2019-Aug-14 19:59N 78°14' E 015°36'0 0.0
2019-Aug-14 19:29N 78°14' E 015°36'2 3.6
2019-Aug-14 19:00N 78°12' E 015°36'2234.5 260 / 81001.5 3.5 0.7 8.6
2019-Aug-14 18:59N 78°14' E 015°36'0 0.0
2019-Aug-14 18:29N 78°14' E 015°36'2 3.6
2019-Aug-14 18:00N 78°12' E 015°36'2243.5 260 / 101001.9 3.9 1.1 8.6
2019-Aug-14 17:59N 78°14' E 015°36'0 0.0
2019-Aug-14 17:29N 78°14' E 015°36'2 3.6
2019-Aug-14 17:00N 78°12' E 015°36'2253.2 250 / 121002.1 3.8 0.2 8.4
2019-Aug-14 16:59N 78°14' E 015°36'0 0.2
2019-Aug-14 16:30N 78°14' E 015°36'2 3.7
2019-Aug-14 16:00N 78°12' E 015°36'22419.7 260 / 121002.4 4.3 0.1 8.5
2019-Aug-14 15:59N 78°14' E 015°35'0 0.0
2019-Aug-14 15:29N 78°14' E 015°35'2 4.0
2019-Aug-14 15:00N 78°12' E 015°36'23640.3 240 / 141002.5 4.8-0.1 8.5
2019-Aug-14 14:59N 78°14' E 015°35'0 0.0
2019-Aug-14 14:29N 78°14' E 015°35'2 4.1
2019-Aug-14 14:00N 78°12' E 015°36'23640.3 250 / 121002.7 4.8-0.0 8.4
2019-Aug-14 13:59N 78°14' E 015°35'0 0.0
2019-Aug-14 13:29N 78°14' E 015°35'2 4.1
2019-Aug-14 13:00N 78°12' E 015°36'22426.9 270 / 171003.0 4.6-0.0 8.5
2019-Aug-14 12:59N 78°14' E 015°35'0 0.0
2019-Aug-14 12:29N 78°14' E 015°35'2 4.0
2019-Aug-14 12:00N 78°12' E 015°36'21820.1 270 / 141003.2 4.6-0.7 8.4
2019-Aug-14 11:59N 78°14' E 015°35'0 0.0
2019-Aug-14 11:29N 78°14' E 015°35'2 4.1
2019-Aug-14 11:00N 78°12' E 015°36'21809.6 270 / 141003.3 4.6-0.9 8.5
2019-Aug-14 10:59N 78°14' E 015°35'0 0.0
2019-Aug-14 10:29N 78°14' E 015°35'2 4.0
2019-Aug-14 10:00N 78°12' E 015°36'23619.3 280 / 171003.6 4.4-0.7 8.5
2019-Aug-14 09:59N 78°14' E 015°35'0 0.0
2019-Aug-14 09:29N 78°14' E 015°35'2 4.0
2019-Aug-14 09:00N 78°12' E 015°36'21814.9 280 / 141003.9 4.5-0.3 8.5
2019-Aug-14 08:59N 78°14' E 015°35'0 0.0
2019-Aug-14 08:29N 78°14' E 015°35'2 4.0
2019-Aug-14 08:00N 78°12' E 015°36'   290 / 161004.3 4.3-0.1 8.4

Dump ship's entire track history